Time;durP1;ratioP1;P1;durP2;ratioP2;P2;SDS_P1;SDS_P2;PMS_P1;PMS_P2;Temp;Humidity;BMP_temperature;BMP_pressure;BME280_temperature;BME280_humidity;BME280_pressure;Samples;Min_cycle;Max_cycle;Signal;HPM_P1;HPM_P2
2022/06/20 00:01:24;;;;;;;14.2;6.7;;;;;;;22.56;65.14063;932.4425;;;;
2022/06/20 00:04:06;;;;;;;9.5;6.1;;;;;;;22.59;65.06348;932.4628;;;;
2022/06/20 00:06:38;;;;;;;15.5;6.9;;;;;;;22.51;65.7793;932.3878;;;;
2022/06/20 00:09:12;;;;;;;8.9;6.3;;;;;;;22.54;65.39551;932.4509;;;;
2022/06/20 00:11:37;;;;;;;14.5;6.6;;;;;;;22.3;66.31152;932.4489;;;;
2022/06/20 00:14:07;;;;;;;13.6;7;;;;;;;22.36;66.34375;932.4779;;;;
2022/06/20 00:16:32;;;;;;;15.6;7.2;;;;;;;22.43;66.30664;932.4953;;;;
2022/06/20 00:19:02;;;;;;;16.7;7.2;;;;;;;22.27;67.06836;932.4936;;;;
2022/06/20 00:21:31;;;;;;;13.5;6.6;;;;;;;22.07;68.00098;932.4835;;;;
2022/06/20 00:23:56;;;;;;;11.2;7;;;;;;;22.17;67.40625;932.4434;;;;
2022/06/20 00:26:23;;;;;;;13.5;6.8;;;;;;;21.85;68.7041;932.3856;;;;
2022/06/20 00:28:48;;;;;;;13.6;7;;;;;;;21.77;68.38672;932.2964;;;;
2022/06/20 00:31:16;;;;;;;14.7;6.9;;;;;;;21.87;68.14453;932.318;;;;
2022/06/20 00:33:41;;;;;;;12.7;6.6;;;;;;;21.73;68.12402;932.366;;;;
2022/06/20 00:36:08;;;;;;;13.8;7;;;;;;;21.72;68.20313;932.3074;;;;
2022/06/20 00:38:35;;;;;;;15.4;7;;;;;;;21.65;68.11133;932.3329;;;;
2022/06/20 00:41:07;;;;;;;12;7.1;;;;;;;21.77;67.96582;932.3108;;;;
2022/06/20 00:43:38;;;;;;;12.7;7.1;;;;;;;21.49;68.55469;932.3047;;;;
2022/06/20 00:46:03;;;;;;;13.2;6.8;;;;;;;21.59;68.40625;932.3044;;;;
2022/06/20 00:48:29;;;;;;;12.5;7.3;;;;;;;21.68;68.59668;932.2473;;;;
2022/06/20 00:50:57;;;;;;;14.6;7.1;;;;;;;21.67;68.83984;932.272;;;;
2022/06/20 00:53:23;;;;;;;15.1;7.4;;;;;;;21.7;68.12012;932.253;;;;
2022/06/20 00:55:48;;;;;;;16.5;6.4;;;;;;;21.9;67.41211;932.1334;;;;
2022/06/20 00:58:13;;;;;;;11.8;6.4;;;;;;;21.76;67.96387;932.1234;;;;
2022/06/20 01:00:38;;;;;;;12.4;6.6;;;;;;;21.82;67.72754;932.1474;;;;
2022/06/20 01:03:04;;;;;;;10.2;6.2;;;;;;;21.84;67.10938;932.1403;;;;
2022/06/20 01:05:30;;;;;;;10.3;6.7;;;;;;;21.78;67.35742;932.1792;;;;
2022/06/20 01:07:56;;;;;;;14.7;7.1;;;;;;;21.54;68.25879;932.1769;;;;
2022/06/20 01:10:21;;;;;;;14.2;7;;;;;;;21.42;68.25098;932.2336;;;;
2022/06/20 01:12:48;;;;;;;15.4;7.4;;;;;;;21.49;68.35547;932.291;;;;
2022/06/20 01:15:13;;;;;;;15;6.9;;;;;;;21.59;68.30078;932.281;;;;
2022/06/20 01:17:38;;;;;;;12.6;7;;;;;;;21.62;68.41211;932.3939;;;;
2022/06/20 01:20:04;;;;;;;13.4;7.7;;;;;;;21.51;68.88672;932.3847;;;;
2022/06/20 01:22:41;;;;;;;11.8;7.3;;;;;;;21.54;68.44629;932.4094;;;;
2022/06/20 01:25:06;;;;;;;12.9;6.7;;;;;;;21.49;69.04688;932.3946;;;;
2022/06/20 01:27:32;;;;;;;16.3;6.8;;;;;;;21.51;68.9209;932.3833;;;;
2022/06/20 01:29:57;;;;;;;13.9;6.9;;;;;;;21.41;68.71777;932.3572;;;;
2022/06/20 01:32:22;;;;;;;12.3;7.3;;;;;;;21.44;69.63672;932.3909;;;;
2022/06/20 01:34:47;;;;;;;13.5;6.9;;;;;;;21.49;69.3877;932.4025;;;;
2022/06/20 01:37:28;;;;;;;15;7.1;;;;;;;21.52;69.34473;932.3996;;;;
2022/06/20 01:39:37;;;;;;;13.3;7.6;;;;;;;21.52;69.40137;932.3619;;;;
2022/06/20 01:42:20;;;;;;;12.3;6.6;;;;;;;21.46;69.63965;932.3903;;;;
2022/06/20 01:44:30;;;;;;;14.2;7.3;;;;;;;21.46;69.74414;932.3206;;;;
2022/06/20 01:47:00;;;;;;;16.2;6.7;;;;;;;21.45;69.87207;932.3678;;;;
2022/06/20 01:49:25;;;;;;;11.8;6.3;;;;;;;21.4;70.0166;932.3137;;;;
2022/06/20 01:51:52;;;;;;;13.9;6.4;;;;;;;21.36;69.76367;932.282;;;;
2022/06/20 01:54:17;;;;;;;14.2;7;;;;;;;21.32;70.01563;932.3049;;;;
2022/06/20 01:56:42;;;;;;;16;7.8;;;;;;;21.25;70.36816;932.2502;;;;
2022/06/20 01:59:07;;;;;;;13.5;7.8;;;;;;;21.29;69.56543;932.2438;;;;
2022/06/20 02:01:37;;;;;;;9.4;6.7;;;;;;;21.19;70.57813;932.3455;;;;
2022/06/20 02:04:01;;;;;;;12.7;6.9;;;;;;;21.23;70.35254;932.3441;;;;
2022/06/20 02:06:28;;;;;;;12.4;6.3;;;;;;;21.23;69.81445;932.2622;;;;
2022/06/20 02:08:53;;;;;;;10.6;6.4;;;;;;;21.19;70.26367;932.2676;;;;
2022/06/20 02:11:22;;;;;;;13.5;7.1;;;;;;;21.17;70.62305;932.2464;;;;
2022/06/20 02:13:46;;;;;;;11.6;7.1;;;;;;;21.24;69.97949;932.3753;;;;
2022/06/20 02:16:16;;;;;;;10.8;6.7;;;;;;;21.2;69.99707;932.3796;;;;
2022/06/20 02:18:41;;;;;;;13.3;7.6;;;;;;;21.1;70.68359;932.3925;;;;
2022/06/20 02:21:07;;;;;;;12.3;7.3;;;;;;;21.09;70.41113;932.3844;;;;
2022/06/20 02:23:32;;;;;;;15.5;7.2;;;;;;;21.02;70.80957;932.3812;;;;
2022/06/20 02:26:00;;;;;;;11.8;7.2;;;;;;;20.91;70.4541;932.3344;;;;
2022/06/20 02:28:28;;;;;;;12.5;7.1;;;;;;;20.95;70.15625;932.345;;;;
2022/06/20 02:30:53;;;;;;;13.1;7;;;;;;;21.01;70.11816;932.3839;;;;
2022/06/20 02:33:22;;;;;;;12.4;7;;;;;;;20.95;70.44824;932.3766;;;;
2022/06/20 02:35:46;;;;;;;10.3;6.3;;;;;;;20.98;70.78027;932.3099;;;;
2022/06/20 02:38:11;;;;;;;10.9;6.6;;;;;;;20.98;70.81543;932.387;;;;
2022/06/20 02:40:41;;;;;;;12.8;6.4;;;;;;;21.01;70.69043;932.3895;;;;
2022/06/20 02:43:03;;;;;;;11;6.7;;;;;;;20.93;70.77148;932.3734;;;;
2022/06/20 02:45:31;;;;;;;12.8;7.3;;;;;;;20.93;71.64844;932.38;;;;
2022/06/20 02:47:56;;;;;;;13.7;7.1;;;;;;;20.93;71.25098;932.3717;;;;
2022/06/20 02:50:26;;;;;;;11.2;7.3;;;;;;;20.85;71.22656;932.4042;;;;
2022/06/20 02:52:58;;;;;;;14.4;7;;;;;;;20.82;71.01172;932.4091;;;;
2022/06/20 02:55:24;;;;;;;10.4;6.3;;;;;;;20.82;71;932.3192;;;;
2022/06/20 02:57:49;;;;;;;13.1;6.7;;;;;;;20.92;70.4541;932.3933;;;;
2022/06/20 03:00:15;;;;;;;10.9;6.6;;;;;;;20.87;70.90332;932.4178;;;;
2022/06/20 03:02:39;;;;;;;11.7;6.9;;;;;;;20.75;71.30371;932.3876;;;;
2022/06/20 03:05:04;;;;;;;14.3;6.9;;;;;;;20.63;72.5;932.3734;;;;
2022/06/20 03:07:30;;;;;;;10.8;7.1;;;;;;;20.74;71.73633;932.3458;;;;
2022/06/20 03:09:55;;;;;;;15.2;7.6;;;;;;;20.74;71.84082;932.2778;;;;
2022/06/20 03:12:23;;;;;;;13.2;7.2;;;;;;;20.78;71.54199;932.3088;;;;
2022/06/20 03:14:48;;;;;;;13.7;7.3;;;;;;;20.83;71.63184;932.2664;;;;
2022/06/20 03:17:14;;;;;;;13.3;6.9;;;;;;;20.77;72.23145;932.3461;;;;
2022/06/20 03:19:39;;;;;;;12.5;7.1;;;;;;;20.68;72.33301;932.3375;;;;
2022/06/20 03:22:05;;;;;;;12.3;7.3;;;;;;;20.43;73.1084;932.4401;;;;
2022/06/20 03:24:30;;;;;;;12.2;8.4;;;;;;;20.3;74.03418;932.4822;;;;
2022/06/20 03:26:58;;;;;;;11.7;7.1;;;;;;;20.4;73.95801;932.5245;;;;
2022/06/20 03:29:25;;;;;;;19.3;10.3;;;;;;;20.33;74.0625;932.5069;;;;
2022/06/20 03:31:50;;;;;;;17.2;9.4;;;;;;;20.4;74.06152;932.4995;;;;
2022/06/20 03:34:15;;;;;;;18.5;9.2;;;;;;;20.56;73.99609;932.5125;;;;
2022/06/20 03:36:40;;;;;;;17.2;8.9;;;;;;;20.65;73.75488;932.5385;;;;
2022/06/20 03:39:06;;;;;;;14.2;8.3;;;;;;;20.77;73.40039;932.546;;;;
2022/06/20 03:41:33;;;;;;;17.1;8;;;;;;;20.86;73.09766;932.5511;;;;
2022/06/20 03:43:58;;;;;;;12.2;6.9;;;;;;;20.8;73.21777;932.6233;;;;
2022/06/20 03:46:29;;;;;;;14;7.8;;;;;;;20.79;73.75391;932.6353;;;;
2022/06/20 03:48:54;;;;;;;13.7;8.6;;;;;;;20.87;72.99609;932.5528;;;;
2022/06/20 03:51:20;;;;;;;13.2;7.9;;;;;;;21.02;71.93359;932.5739;;;;
2022/06/20 03:53:48;;;;;;;12.7;7.7;;;;;;;21.09;71.80371;932.6305;;;;
2022/06/20 03:56:14;;;;;;;14.8;8;;;;;;;21.21;71.31934;932.61;;;;
2022/06/20 03:58:39;;;;;;;14.2;7.9;;;;;;;21.14;72.05762;932.5958;;;;
2022/06/20 04:02:36;;;;;;;11.6;6.7;;;;;;;21.32;70.86816;932.6072;;;;
2022/06/20 04:05:02;;;;;;;12;6.9;;;;;;;21.34;70.48535;932.668;;;;
2022/06/20 04:07:30;;;;;;;10.7;6.6;;;;;;;21.25;71.28125;932.6649;;;;
2022/06/20 04:12:20;;;;;;;13.4;7.4;;;;;;;21.39;71.24316;932.6592;;;;
2022/06/20 04:14:47;;;;;;;12.9;7.5;;;;;;;21.41;71.16406;932.678;;;;
2022/06/20 04:18:28;;;;;;;12.6;7.3;;;;;;;21.44;71.13281;932.6617;;;;
2022/06/20 04:19:37;;;;;;;11.1;6.4;;;;;;;21.31;70.2002;932.6528;;;;
2022/06/20 04:22:02;;;;;;;13.3;7.2;;;;;;;21.4;69.98145;932.7122;;;;
2022/06/20 04:24:27;;;;;;;20.3;8.4;;;;;;;21.46;70.17773;932.7757;;;;
2022/06/20 04:26:53;;;;;;;14.6;7.7;;;;;;;21.41;70.06348;932.8011;;;;
2022/06/20 04:29:20;;;;;;;14.4;6.7;;;;;;;21.47;70.33105;932.8433;;;;
2022/06/20 04:31:46;;;;;;;12.2;7.1;;;;;;;21.59;69.57715;932.8848;;;;
2022/06/20 04:34:11;;;;;;;9;6.2;;;;;;;21.76;69.39453;932.9012;;;;
2022/06/20 04:36:41;;;;;;;14.4;6.7;;;;;;;21.93;71.11914;932.9998;;;;
2022/06/20 04:39:06;;;;;;;11.1;7.1;;;;;;;22.08;70.99023;933.0086;;;;
2022/06/20 04:41:37;;;;;;;9.4;6.6;;;;;;;22.21;69.58105;933.0256;;;;
2022/06/20 04:44:03;;;;;;;12.5;6.9;;;;;;;22.33;69.40039;933.0179;;;;
2022/06/20 04:46:34;;;;;;;11.4;7.2;;;;;;;22.32;68.24902;932.9869;;;;
2022/06/20 04:49:02;;;;;;;10.8;7.3;;;;;;;22.51;66.97559;933.0275;;;;
2022/06/20 04:51:27;;;;;;;11.5;6.3;;;;;;;22.68;66.6748;933.0167;;;;
2022/06/20 04:53:55;;;;;;;11.2;6.3;;;;;;;22.82;66.22461;933.0357;;;;
2022/06/20 04:56:26;;;;;;;12;7;;;;;;;23.01;65.87695;933.0717;;;;
2022/06/20 04:58:45;;;;;;;13.4;6.4;;;;;;;23.3;64.79199;933.0928;;;;
2022/06/20 05:01:10;;;;;;;12.3;6.4;;;;;;;23.51;65.89355;933.0438;;;;
2022/06/20 05:03:36;;;;;;;10.6;6.2;;;;;;;24.08;66.13086;933.0711;;;;
2022/06/20 05:06:01;;;;;;;14.3;6.3;;;;;;;25.05;61.12891;933.0698;;;;
2022/06/20 05:08:26;;;;;;;15.3;6.3;;;;;;;25.84;57.74902;933.0683;;;;
2022/06/20 05:10:51;;;;;;;21.4;6.4;;;;;;;25.98;54.56152;932.9722;;;;
2022/06/20 05:13:16;;;;;;;15.3;5.4;;;;;;;26.72;53.5625;932.9702;;;;
2022/06/20 05:15:44;;;;;;;8.9;5;;;;;;;27.63;50.63379;933.0277;;;;
2022/06/20 05:18:10;;;;;;;11.3;5.2;;;;;;;28.04;51.72363;933.0369;;;;
2022/06/20 05:20:36;;;;;;;10.3;5.7;;;;;;;29.01;49.07227;933.0221;;;;
2022/06/20 05:23:01;;;;;;;11;4.9;;;;;;;29.22;46.27344;933.0499;;;;
2022/06/20 05:25:26;;;;;;;11.1;5.3;;;;;;;29.24;47.80078;933.0635;;;;
2022/06/20 05:27:51;;;;;;;14.4;5.4;;;;;;;29.47;47.37207;933.0401;;;;
2022/06/20 05:30:16;;;;;;;11.2;5.8;;;;;;;28.89;49.01367;933.0425;;;;
2022/06/20 05:32:41;;;;;;;14.1;5.6;;;;;;;28.28;50.8252;933.0528;;;;
2022/06/20 05:35:06;;;;;;;11;5.7;;;;;;;28.31;51.58984;933.0556;;;;
2022/06/20 05:37:31;;;;;;;9.5;5.3;;;;;;;28.56;51.09375;933.0393;;;;
2022/06/20 05:39:56;;;;;;;9.7;4.8;;;;;;;29.2;48.87988;932.9677;;;;
2022/06/20 05:42:25;;;;;;;11.3;5.3;;;;;;;29.02;50.49121;933.0362;;;;
2022/06/20 05:44:50;;;;;;;14;5.2;;;;;;;28.36;53.68848;933.087;;;;
2022/06/20 05:47:18;;;;;;;10.6;5.4;;;;;;;27.8;55.01074;933.0616;;;;
2022/06/20 05:49:46;;;;;;;8.7;5.2;;;;;;;28.84;51.12598;933.0352;;;;
2022/06/20 05:52:11;;;;;;;8.7;5.3;;;;;;;29.79;49.04004;933.0652;;;;
2022/06/20 05:54:37;;;;;;;9.1;5.4;;;;;;;31.09;44.39648;933.0038;;;;
2022/06/20 05:57:02;;;;;;;8.2;4.3;;;;;;;31.92;40.00781;933.0426;;;;
2022/06/20 05:59:27;;;;;;;12.4;5.2;;;;;;;31.67;39.81934;933.1272;;;;
2022/06/20 06:01:56;;;;;;;11.5;4.9;;;;;;;30.68;42.25293;933.1145;;;;
2022/06/20 06:04:22;;;;;;;14.5;5.1;;;;;;;30.03;47.5498;933.1128;;;;
2022/06/20 06:06:47;;;;;;;11.4;5.1;;;;;;;29.83;44.42773;933.0806;;;;
2022/06/20 06:09:12;;;;;;;9;4.8;;;;;;;29.73;46.22949;933.0613;;;;
2022/06/20 06:11:38;;;;;;;14.3;5.2;;;;;;;29.57;46.75098;933.1092;;;;
2022/06/20 06:14:03;;;;;;;10.4;5.1;;;;;;;29.59;47.68262;933.176;;;;
2022/06/20 06:18:53;;;;;;;31;6.9;;;;;;;29.43;47.34473;933.1808;;;;
2022/06/20 06:21:18;;;;;;;13.4;5.5;;;;;;;29.07;50.59375;933.3184;;;;
2022/06/20 06:23:48;;;;;;;13.2;5.6;;;;;;;29.7;47.98047;933.4127;;;;
2022/06/20 06:26:13;;;;;;;10.1;4.9;;;;;;;31.51;44.125;933.438;;;;
2022/06/20 06:28:42;;;;;;;11.6;5.5;;;;;;;32.24;44.55762;933.5837;;;;
2022/06/20 06:31:07;;;;;;;9.9;5;;;;;;;32.07;44.54004;933.6306;;;;
2022/06/20 06:33:36;;;;;;;13.4;5.6;;;;;;;31.1;44.39648;933.5861;;;;
2022/06/20 06:36:01;;;;;;;10.5;5.7;;;;;;;30.09;45.50391;933.6398;;;;
2022/06/20 06:38:26;;;;;;;12.9;5.2;;;;;;;29.92;45.91602;933.7567;;;;
2022/06/20 06:40:56;;;;;;;11.3;5.1;;;;;;;30.21;45.62305;933.7316;;;;
2022/06/20 06:43:24;;;;;;;9.9;5.4;;;;;;;30.22;43.42773;933.7526;;;;
2022/06/20 06:45:49;;;;;;;9.4;5.4;;;;;;;30.35;41.86426;933.7213;;;;
2022/06/20 06:48:14;;;;;;;10.3;4.9;;;;;;;32.02;39.21484;933.7043;;;;
2022/06/20 06:50:45;;;;;;;8.6;4.5;;;;;;;32.69;38.58789;933.8078;;;;
2022/06/20 06:53:14;;;;;;;8.3;4.8;;;;;;;33.12;36.71484;933.8089;;;;
2022/06/20 06:55:41;;;;;;;9.4;5.4;;;;;;;33.43;35.58496;933.868;;;;
2022/06/20 06:58:07;;;;;;;7.3;4.2;;;;;;;34.59;33.32617;933.9178;;;;
2022/06/20 07:00:32;;;;;;;13.3;5.1;;;;;;;35.2;33.04395;933.9633;;;;
2022/06/20 07:02:57;;;;;;;10;4.8;;;;;;;35.48;33.52344;933.9819;;;;
2022/06/20 07:05:22;;;;;;;10.5;4.9;;;;;;;36.71;31.56738;934.0609;;;;
2022/06/20 07:07:47;;;;;;;10.2;4.5;;;;;;;37.22;30.12305;934.0236;;;;
2022/06/20 07:10:12;;;;;;;10;4.4;;;;;;;37.17;29.85352;934.0089;;;;
2022/06/20 07:12:38;;;;;;;8.3;4.3;;;;;;;37.18;30.20508;933.9819;;;;
2022/06/20 07:15:03;;;;;;;6.3;4.1;;;;;;;35.66;31.82129;933.968;;;;
2022/06/20 07:17:38;;;;;;;7.2;4.6;;;;;;;34.66;33.05273;933.9539;;;;
2022/06/20 07:20:02;;;;;;;10.2;4.5;;;;;;;33.8;33.29199;934.097;;;;
2022/06/20 07:22:27;;;;;;;6.6;4.6;;;;;;;33.17;35.9248;934.1108;;;;
2022/06/20 07:24:52;;;;;;;6.7;4;;;;;;;33.19;34.30371;934.1024;;;;
2022/06/20 07:27:18;;;;;;;6.9;4;;;;;;;34.61;32.25391;934.0179;;;;
2022/06/20 07:29:44;;;;;;;9.2;4.6;;;;;;;34.98;32.17188;934.0988;;;;
2022/06/20 07:32:08;;;;;;;6.9;4;;;;;;;36.66;29.49316;934.133;;;;
2022/06/20 07:34:33;;;;;;;8;3.9;;;;;;;36.61;28.38867;934.0829;;;;
2022/06/20 07:37:01;;;;;;;9.4;4.1;;;;;;;36.28;28.94922;934.0536;;;;
2022/06/20 07:39:26;;;;;;;18;5;;;;;;;35.32;31.72461;934.0911;;;;
2022/06/20 07:41:51;;;;;;;8.9;3.7;;;;;;;36.19;29.66895;934.0994;;;;
2022/06/20 07:44:17;;;;;;;7.6;4.1;;;;;;;33.87;33.94629;934.127;;;;
2022/06/20 07:46:45;;;;;;;9.7;4.2;;;;;;;34.88;33.16602;934.1031;;;;
2022/06/20 07:49:10;;;;;;;10.2;4.2;;;;;;;34.47;31.47363;934.0815;;;;
2022/06/20 07:51:35;;;;;;;7.3;3.7;;;;;;;32.01;36.27734;934.0439;;;;
2022/06/20 07:54:00;;;;;;;8.7;4.2;;;;;;;31.96;38.94434;934.0853;;;;
2022/06/20 07:56:26;;;;;;;7.1;3.9;;;;;;;33.19;38.18652;934.0514;;;;
2022/06/20 07:58:54;;;;;;;10.9;3.9;;;;;;;32.51;36.55762;934.1164;;;;
2022/06/20 08:01:15;;;;;;;7;4.2;;;;;;;32.53;37.33887;934.1088;;;;
2022/06/20 08:03:46;;;;;;;11.8;4.9;;;;;;;31.67;36.60938;934.051;;;;
2022/06/20 08:06:16;;;;;;;6.2;3.9;;;;;;;32.26;36.53711;934.134;;;;
2022/06/20 08:08:41;;;;;;;6.6;4;;;;;;;32.44;35.73535;934.1604;;;;
2022/06/20 08:11:06;;;;;;;8.1;3.8;;;;;;;31.48;37.2041;934.1077;;;;
2022/06/20 08:13:31;;;;;;;8.3;4.6;;;;;;;31.25;38.93262;934.1451;;;;
2022/06/20 08:15:57;;;;;;;7.7;4.2;;;;;;;30.7;38.47949;934.0617;;;;
2022/06/20 08:18:21;;;;;;;8.5;4.3;;;;;;;30.97;37.28223;934.0786;;;;
2022/06/20 08:20:46;;;;;;;11.4;4.8;;;;;;;31.89;38.83203;934.1891;;;;
2022/06/20 08:23:11;;;;;;;7.9;4.6;;;;;;;32.85;36.35645;934.2561;;;;
2022/06/20 08:25:36;;;;;;;12.2;4.6;;;;;;;32.43;37.23438;934.25;;;;
2022/06/20 08:28:01;;;;;;;6.5;4.1;;;;;;;32.33;35.31934;934.2484;;;;
2022/06/20 08:30:27;;;;;;;8.4;3.9;;;;;;;31.44;37.6084;934.2148;;;;
2022/06/20 08:32:55;;;;;;;6.1;4.3;;;;;;;30.84;38.28809;934.2067;;;;
2022/06/20 08:35:20;;;;;;;8;4.6;;;;;;;31;40.45313;934.222;;;;
2022/06/20 08:37:45;;;;;;;9.6;4.5;;;;;;;31.35;37.50488;934.2117;;;;
2022/06/20 08:40:12;;;;;;;12.2;4.7;;;;;;;31.53;37.86719;934.27;;;;
2022/06/20 08:42:41;;;;;;;8.8;4.8;;;;;;;31.31;39.77539;934.3208;;;;
2022/06/20 08:45:12;;;;;;;8.6;4.5;;;;;;;32.43;39.09277;934.342;;;;
2022/06/20 08:47:38;;;;;;;8.9;4.7;;;;;;;34.7;33.94922;934.4202;;;;
2022/06/20 08:50:02;;;;;;;7.5;4.4;;;;;;;34.03;32.4541;934.3968;;;;
2022/06/20 08:53:01;;;;;;;7.6;4.2;;;;;;;33.08;36.79492;934.3994;;;;
2022/06/20 08:55:59;;;;;;;7.6;4.3;;;;;;;33.29;36.78809;934.3967;;;;
2022/06/20 08:58:28;;;;;;;8.4;4.4;;;;;;;33.3;36.10449;934.3761;;;;
2022/06/20 09:00:53;;;;;;;8.8;4.6;;;;;;;32.93;37.25098;934.3499;;;;
2022/06/20 09:03:53;;;;;;;11.7;4.5;;;;;;;32.37;35.68262;934.3149;;;;
2022/06/20 09:06:24;;;;;;;8.8;4.8;;;;;;;31.87;37.50098;934.3538;;;;
2022/06/20 09:08:51;;;;;;;6.6;4.5;;;;;;;31.9;40.49902;934.3348;;;;
2022/06/20 09:11:17;;;;;;;10.1;4.8;;;;;;;32.43;37.1748;934.3351;;;;
2022/06/20 09:13:42;;;;;;;7.5;4.6;;;;;;;32.21;36.17383;934.2358;;;;
2022/06/20 09:16:06;;;;;;;6;4.3;;;;;;;32.23;37.86523;934.2941;;;;
2022/06/20 09:18:35;;;;;;;7.9;4.6;;;;;;;32.35;36.52051;934.3066;;;;
2022/06/20 09:21:00;;;;;;;10.7;5.2;;;;;;;32.6;36.17969;934.3644;;;;
2022/06/20 09:23:26;;;;;;;9;5;;;;;;;32.21;38.65527;934.3166;;;;
2022/06/20 09:25:53;;;;;;;24.7;6;;;;;;;32.79;37.60059;934.3546;;;;
2022/06/20 09:28:18;;;;;;;13;5.4;;;;;;;33.34;36.04688;934.3733;;;;
2022/06/20 09:30:43;;;;;;;10.8;5;;;;;;;33.17;35.19141;934.322;;;;
2022/06/20 09:33:13;;;;;;;31;7.1;;;;;;;33.5;38.37988;934.2896;;;;
2022/06/20 09:35:39;;;;;;;7.3;4.4;;;;;;;32.74;37.31934;934.2873;;;;
2022/06/20 09:38:07;;;;;;;11.5;4.6;;;;;;;33.16;37.94336;934.3297;;;;
2022/06/20 09:40:32;;;;;;;15.7;5.1;;;;;;;31.98;38.46777;934.2299;;;;
2022/06/20 09:42:57;;;;;;;9.8;5;;;;;;;31.76;41.65918;934.2823;;;;
2022/06/20 09:45:27;;;;;;;8.6;4.7;;;;;;;30.82;42.70898;934.2531;;;;
2022/06/20 09:47:55;;;;;;;7;4.6;;;;;;;30.65;40.56543;934.1303;;;;
2022/06/20 09:50:22;;;;;;;8.4;5;;;;;;;30.72;42.24414;934.2216;;;;
2022/06/20 09:52:52;;;;;;;6.8;5;;;;;;;31.92;39.82813;934.2506;;;;
2022/06/20 09:55:24;;;;;;;6.2;4.3;;;;;;;32.79;36.06348;934.2325;;;;
2022/06/20 09:57:50;;;;;;;7.8;4.7;;;;;;;33.1;35.94336;934.2474;;;;
2022/06/20 10:00:15;;;;;;;9;4.7;;;;;;;32.04;39.12012;934.283;;;;
2022/06/20 10:02:41;;;;;;;6.9;4.5;;;;;;;31.36;41.63379;934.2668;;;;
2022/06/20 10:05:07;;;;;;;7.6;4.8;;;;;;;30.73;40.52539;934.2475;;;;
2022/06/20 10:07:35;;;;;;;9.8;4.7;;;;;;;30.57;41.16797;934.2568;;;;
2022/06/20 10:10:00;;;;;;;8.8;4.7;;;;;;;30.81;41.08203;934.2592;;;;
2022/06/20 10:12:28;;;;;;;9.2;4.5;;;;;;;31.29;37.97852;934.2255;;;;
2022/06/20 10:14:55;;;;;;;10.3;4.8;;;;;;;31.37;42.3291;934.2212;;;;
2022/06/20 10:17:21;;;;;;;8.5;4.6;;;;;;;31;41.12305;934.2473;;;;
2022/06/20 10:19:46;;;;;;;6.8;4.5;;;;;;;30.39;42.50195;934.1883;;;;
2022/06/20 10:22:11;;;;;;;8;4.8;;;;;;;30.85;40.53613;934.2228;;;;
2022/06/20 10:24:36;;;;;;;7.7;4.6;;;;;;;30.76;41.80664;934.2037;;;;
2022/06/20 10:27:02;;;;;;;8.6;4.3;;;;;;;30.1;41.31543;934.2113;;;;
2022/06/20 10:29:28;;;;;;;8.9;4.9;;;;;;;30.26;41.10352;934.1738;;;;
2022/06/20 10:31:52;;;;;;;10.8;4.7;;;;;;;30.25;41.05566;934.132;;;;
2022/06/20 10:34:17;;;;;;;7.8;4.4;;;;;;;30.14;42.09473;934.1864;;;;
2022/06/20 10:36:42;;;;;;;9;4.3;;;;;;;30.57;42.50586;934.0655;;;;
2022/06/20 10:39:10;;;;;;;7.5;4.4;;;;;;;30.96;41.72949;934.0922;;;;
2022/06/20 10:41:37;;;;;;;9.5;4.8;;;;;;;31.06;40.65039;934.1058;;;;
2022/06/20 10:44:05;;;;;;;10.4;4.6;;;;;;;31.3;40.20508;934.0513;;;;
2022/06/20 10:46:32;;;;;;;9.7;4.5;;;;;;;31.84;38.68359;934.0708;;;;
2022/06/20 10:48:57;;;;;;;12.9;4.9;;;;;;;32.22;38.21191;934.0245;;;;
2022/06/20 10:51:22;;;;;;;6.8;4.1;;;;;;;32.66;37.69727;934.0001;;;;
2022/06/20 10:53:50;;;;;;;7.2;4.2;;;;;;;32.42;38.30078;934.0352;;;;
2022/06/20 10:56:18;;;;;;;10.7;4.3;;;;;;;32;39.30859;933.9739;;;;
2022/06/20 10:58:43;;;;;;;7.3;4.5;;;;;;;31.83;38.34668;934.0305;;;;
2022/06/20 11:01:09;;;;;;;11.1;4.9;;;;;;;31.53;39.01563;934.0719;;;;
2022/06/20 11:03:36;;;;;;;8.2;4.7;;;;;;;31.5;38.60645;934.0956;;;;
2022/06/20 11:06:07;;;;;;;8.5;4.2;;;;;;;31.05;40.50586;934.0178;;;;
2022/06/20 11:08:30;;;;;;;14.5;5.7;;;;;;;30.76;39.71484;934.0798;;;;
2022/06/20 11:10:55;;;;;;;8.1;4.9;;;;;;;29.49;42.10645;934.0367;;;;
2022/06/20 11:13:22;;;;;;;13.7;5.1;;;;;;;28.86;46.30859;934.1256;;;;
2022/06/20 11:15:48;;;;;;;8.9;4.6;;;;;;;28.96;45.56934;934.0829;;;;
2022/06/20 11:18:14;;;;;;;8.3;4.5;;;;;;;29.23;43.95215;934.141;;;;
2022/06/20 11:20:40;;;;;;;8.4;4.7;;;;;;;29.63;41.5;934.0239;;;;
2022/06/20 11:23:05;;;;;;;11.6;4.8;;;;;;;29.85;41.78125;934.0108;;;;
2022/06/20 11:25:30;;;;;;;6.3;4.6;;;;;;;29.97;40.15918;934.0646;;;;
2022/06/20 11:27:55;;;;;;;6.9;5;;;;;;;30.01;41.97559;934.0932;;;;
2022/06/20 11:30:23;;;;;;;6.4;4.5;;;;;;;30.07;41.71973;934.1213;;;;
2022/06/20 11:32:47;;;;;;;8.3;5.2;;;;;;;29.6;42.7959;934.1355;;;;
2022/06/20 11:35:18;;;;;;;9.3;4.9;;;;;;;29.48;42.36816;934.0901;;;;
2022/06/20 11:37:43;;;;;;;11.5;4.6;;;;;;;29.71;42.03125;934.0745;;;;
2022/06/20 11:40:11;;;;;;;6.5;4.6;;;;;;;29.63;43.7998;934.0292;;;;
2022/06/20 11:42:39;;;;;;;9.7;5.4;;;;;;;29.22;47.5957;934.0695;;;;
2022/06/20 11:45:06;;;;;;;8;4.6;;;;;;;29.42;44.73242;934.0575;;;;
2022/06/20 11:47:37;;;;;;;8.8;4.9;;;;;;;29;46.13184;934.0293;;;;
2022/06/20 11:50:09;;;;;;;8.5;5.1;;;;;;;28.93;44.92285;933.9872;;;;
2022/06/20 11:52:43;;;;;;;10.8;5;;;;;;;29.26;45.68262;933.9102;;;;
2022/06/20 11:55:15;;;;;;;6.5;4.7;;;;;;;29.77;46.0918;933.9126;;;;
2022/06/20 11:57:42;;;;;;;7.7;5;;;;;;;29.77;42.50195;933.8525;;;;
2022/06/20 12:00:12;;;;;;;7.3;5;;;;;;;29.71;44.98926;933.8683;;;;
2022/06/20 12:02:37;;;;;;;7.6;4.9;;;;;;;29.72;44.79785;933.8351;;;;
2022/06/20 12:05:06;;;;;;;8.3;4.7;;;;;;;29.93;44.40234;933.8463;;;;
2022/06/20 12:07:31;;;;;;;7.2;4.6;;;;;;;30.39;44.44629;933.8791;;;;
2022/06/20 12:09:57;;;;;;;6;4.5;;;;;;;30.64;43.22949;933.8706;;;;
2022/06/20 12:12:25;;;;;;;8.3;5.4;;;;;;;30.36;41.43457;933.8731;;;;
2022/06/20 12:14:51;;;;;;;6.5;4.8;;;;;;;30.17;42.00195;933.8747;;;;
2022/06/20 12:17:15;;;;;;;8.2;5.3;;;;;;;30.05;42.57617;933.9006;;;;
2022/06/20 12:24:31;;;;;;;8.2;5;;;;;;;31;44.66211;933.8783;;;;
2022/06/20 12:26:56;;;;;;;11.5;5.3;;;;;;;31.32;41.57129;933.8565;;;;
2022/06/20 12:29:24;;;;;;;11.5;5.2;;;;;;;31.26;42.55957;933.8158;;;;
2022/06/20 12:31:55;;;;;;;8.5;5.3;;;;;;;31.26;42.34375;933.8208;;;;
2022/06/20 12:34:26;;;;;;;10.1;5.4;;;;;;;31.3;42.68262;933.908;;;;
2022/06/20 12:36:56;;;;;;;10.8;5.1;;;;;;;31.39;41.08691;933.9045;;;;
2022/06/20 12:40:08;;;;;;;10;5.1;;;;;;;31.12;40.24902;933.877;;;;
2022/06/20 12:42:29;;;;;;;9.8;5.9;;;;;;;30.93;43.3291;933.7874;;;;
2022/06/20 12:44:54;;;;;;;12.3;5.4;;;;;;;31.3;42.56152;933.8097;;;;
2022/06/20 12:47:19;;;;;;;12.5;5;;;;;;;31.61;41.4541;933.8173;;;;
2022/06/20 12:49:44;;;;;;;11.8;5.6;;;;;;;31.35;41.47754;933.8212;;;;
2022/06/20 12:52:23;;;;;;;10.8;5.4;;;;;;;31.41;40.75391;933.7917;;;;
2022/06/20 12:55:36;;;;;;;11.9;5.7;;;;;;;31.98;39.83398;933.7791;;;;
2022/06/20 12:58:03;;;;;;;7.3;5.3;;;;;;;32.3;38.13574;933.8058;;;;
2022/06/20 13:00:28;;;;;;;9.3;5.6;;;;;;;32.35;39.02637;933.8017;;;;
2022/06/20 13:02:53;;;;;;;11.3;5.5;;;;;;;32.21;38.77539;933.8289;;;;
2022/06/20 13:05:20;;;;;;;9.1;5.6;;;;;;;32.13;37.94043;933.7711;;;;
2022/06/20 13:07:45;;;;;;;10.2;5.2;;;;;;;32.01;40.33984;933.7078;;;;
2022/06/20 13:10:17;;;;;;;9.9;4.8;;;;;;;31.57;39.73828;933.7136;;;;
2022/06/20 13:12:45;;;;;;;7.7;5.3;;;;;;;30.84;43.70215;933.5839;;;;
2022/06/20 13:15:16;;;;;;;9.9;5.6;;;;;;;30.4;44.40039;933.5825;;;;
2022/06/20 13:17:44;;;;;;;11.9;6.3;;;;;;;30.1;45.24219;933.5753;;;;
2022/06/20 13:20:16;;;;;;;10.3;5.7;;;;;;;29.78;42.83691;933.5966;;;;
2022/06/20 13:22:42;;;;;;;11.7;6.2;;;;;;;30.12;44.07422;933.5544;;;;
2022/06/20 13:25:09;;;;;;;6.7;5.3;;;;;;;30.5;44.41016;933.5159;;;;
2022/06/20 13:27:34;;;;;;;11.2;5.1;;;;;;;31;42.77344;933.5248;;;;
2022/06/20 13:29:59;;;;;;;12.9;5.8;;;;;;;31.29;41.59277;933.4421;;;;
2022/06/20 13:32:31;;;;;;;10.7;5.6;;;;;;;31.21;39.93359;933.4426;;;;
2022/06/20 13:34:56;;;;;;;12.3;5.7;;;;;;;31.27;40.02344;933.3926;;;;
2022/06/20 13:37:26;;;;;;;13.3;5.8;;;;;;;31.33;41.46387;933.3695;;;;
2022/06/20 13:39:51;;;;;;;9.3;5.7;;;;;;;30.61;42.42578;933.2864;;;;
2022/06/20 13:42:18;;;;;;;13.1;6.4;;;;;;;30.62;42.36621;933.2844;;;;
2022/06/20 13:44:43;;;;;;;7.6;5.6;;;;;;;30.35;41.56641;933.25;;;;
2022/06/20 13:47:11;;;;;;;9.1;5.6;;;;;;;30.12;46.56934;933.2029;;;;
2022/06/20 13:49:36;;;;;;;9.8;5.5;;;;;;;30.21;43.24805;933.2085;;;;
2022/06/20 13:52:02;;;;;;;7.5;4.9;;;;;;;30.75;42.49902;933.2094;;;;
2022/06/20 13:54:26;;;;;;;11.4;5.8;;;;;;;30.5;41.46094;933.0964;;;;
2022/06/20 13:56:54;;;;;;;8;5.2;;;;;;;30.38;42.47559;933.1234;;;;
2022/06/20 13:59:20;;;;;;;10.7;5.3;;;;;;;30.88;42.7627;933.1395;;;;
2022/06/20 14:01:45;;;;;;;7.8;5;;;;;;;31;41.90039;933.0377;;;;
2022/06/20 14:04:12;;;;;;;10.7;5;;;;;;;30.86;42.47363;933.0725;;;;
2022/06/20 14:06:44;;;;;;;10.5;5.1;;;;;;;30.47;43.16406;932.9916;;;;
2022/06/20 14:09:11;;;;;;;8.2;5.4;;;;;;;30.75;42.16406;932.9763;;;;
2022/06/20 14:11:40;;;;;;;7.1;5.3;;;;;;;30.57;41.14355;932.9658;;;;
2022/06/20 14:14:01;;;;;;;21.2;6.7;;;;;;;30.46;41.81445;932.9241;;;;
2022/06/20 14:16:27;;;;;;;12.1;5.2;;;;;;;30.48;42.5332;932.9313;;;;
2022/06/20 14:18:52;;;;;;;14.2;5.1;;;;;;;30.13;42.20215;932.8256;;;;
2022/06/20 14:21:17;;;;;;;11.4;5.9;;;;;;;29.82;41.9707;932.8265;;;;
2022/06/20 14:23:42;;;;;;;11.1;5.2;;;;;;;30.1;41.45898;932.8404;;;;
2022/06/20 14:26:07;;;;;;;6.8;4.9;;;;;;;30.34;42.6875;932.8308;;;;
2022/06/20 14:28:32;;;;;;;10.5;5.5;;;;;;;30.61;42.15039;932.8245;;;;